createdAt,value
2018-09-21T00:03:15.781Z,4.40
2018-09-21T00:13:18.894Z,4.50
2018-09-21T00:23:22.100Z,4.20
2018-09-21T00:33:25.823Z,4.50
2018-09-21T00:43:29.030Z,4.23
2018-09-21T00:53:32.192Z,4.40
2018-09-21T01:03:35.513Z,4.45
2018-09-21T01:19:52.812Z,4.50
2018-09-21T01:31:31.102Z,4.30
2018-09-21T01:41:34.530Z,4.73
2018-09-21T01:51:37.653Z,4.57
2018-09-21T02:01:40.904Z,4.30
2018-09-21T02:11:44.268Z,4.60
2018-09-21T02:21:47.878Z,4.50
2018-09-21T02:31:51.110Z,4.50
2018-09-21T02:41:54.463Z,4.83
2018-09-21T02:51:57.861Z,4.70
2018-09-21T03:02:01.093Z,4.40
2018-09-21T03:12:04.189Z,4.40
2018-09-21T03:22:07.638Z,4.53
2018-09-21T03:32:10.990Z,4.53
2018-09-21T03:42:14.198Z,4.50
2018-09-21T03:52:17.388Z,4.40
2018-09-21T04:02:20.578Z,4.50
2018-09-21T04:12:23.833Z,4.63
2018-09-21T04:22:27.002Z,4.13
2018-09-21T04:32:29.995Z,4.40
2018-09-21T04:42:33.200Z,4.30
2018-09-21T04:52:36.416Z,4.37
2018-09-21T05:02:39.433Z,4.50
2018-09-21T05:12:42.762Z,4.63
2018-09-21T05:22:46.026Z,4.30
2018-09-21T05:32:49.057Z,4.33
2018-09-21T05:42:52.704Z,4.40
2018-09-21T05:52:55.826Z,4.70
2018-09-21T06:02:59.090Z,4.27
2018-09-21T06:13:02.117Z,4.23
2018-09-21T06:23:05.250Z,4.43
2018-09-21T06:33:08.361Z,4.17
2018-09-21T06:43:11.663Z,4.20
2018-09-21T06:53:14.844Z,5.03
2018-09-21T07:03:17.977Z,5.10
2018-09-21T07:13:21.170Z,5.08
2018-09-21T07:23:24.189Z,5.40
2018-09-21T07:33:27.329Z,5.60
2018-09-21T07:43:30.953Z,5.83
2018-09-21T07:53:34.057Z,5.47
2018-09-21T08:03:37.219Z,5.80
2018-09-21T08:13:40.375Z,5.50
2018-09-21T08:23:43.520Z,5.40
2018-09-21T08:33:47.917Z,5.00
2018-09-21T08:43:51.188Z,5.00
2018-09-21T08:53:54.360Z,4.90
2018-09-21T09:03:57.469Z,4.63
2018-09-21T09:14:00.687Z,5.00
2018-09-21T09:24:03.763Z,4.60
2018-09-21T09:34:06.910Z,4.90
2018-09-21T09:44:10.591Z,4.40
2018-09-21T09:57:49.435Z,4.08
2018-09-21T10:07:53.906Z,3.90
2018-09-21T10:17:56.968Z,3.50
2018-09-21T10:28:00.297Z,4.08
2018-09-21T10:38:03.239Z,3.90
2018-09-21T10:48:06.328Z,3.85
2018-09-21T10:58:09.461Z,3.47
2018-09-21T11:08:12.602Z,3.75
2018-09-21T11:18:15.809Z,3.70
2018-09-21T11:28:19.076Z,3.85
